createdAt,value
2022-09-14T00:00:28.666Z,1.98
2022-09-14T00:06:15.475Z,2.00
2022-09-14T00:11:47.436Z,1.80
2022-09-14T00:17:19.117Z,1.85
2022-09-14T00:22:50.732Z,2.10
2022-09-14T00:28:22.143Z,1.90
2022-09-14T00:33:54.411Z,2.20
2022-09-14T00:39:25.848Z,1.75
2022-09-14T00:45:10.718Z,2.00
2022-09-14T00:50:42.114Z,2.00
2022-09-14T00:56:14.681Z,2.00
2022-09-14T01:01:45.999Z,2.00
2022-09-14T01:07:26.743Z,1.85
2022-09-14T01:13:18.219Z,1.80
2022-09-14T01:18:57.032Z,2.05
2022-09-14T01:24:49.675Z,1.83
2022-09-14T01:30:22.982Z,1.70
2022-09-14T01:35:57.505Z,1.70
2022-09-14T01:41:31.537Z,1.98
2022-09-14T01:47:23.542Z,2.08
2022-09-14T01:53:41.084Z,1.77
2022-09-14T01:59:24.507Z,1.85
2022-09-14T02:05:04.163Z,2.03
2022-09-14T02:10:35.191Z,1.80
2022-09-14T02:16:06.114Z,2.08
2022-09-14T02:21:38.888Z,1.80
2022-09-14T02:27:10.225Z,2.17
2022-09-14T02:32:53.626Z,1.90
2022-09-14T02:38:41.236Z,1.73
2022-09-14T02:44:22.030Z,1.95
2022-09-14T02:50:41.159Z,2.28
2022-09-14T02:56:12.861Z,2.00
2022-09-14T03:01:44.081Z,1.73
2022-09-14T03:07:15.189Z,1.98
2022-09-14T03:12:46.146Z,1.88
2022-09-14T03:18:18.111Z,1.92
2022-09-14T03:23:51.382Z,2.00
2022-09-14T03:29:22.788Z,1.95
2022-09-14T03:34:54.466Z,1.83
2022-09-14T03:40:25.875Z,2.10
2022-09-14T03:45:57.427Z,1.83
2022-09-14T03:51:28.494Z,1.80
2022-09-14T03:56:59.639Z,2.00
2022-09-14T04:02:30.652Z,1.70
2022-09-14T04:08:02.700Z,2.00
2022-09-14T04:13:34.601Z,2.00
2022-09-14T04:19:06.744Z,2.03
2022-09-14T04:24:37.800Z,2.10
2022-09-14T04:30:09.488Z,2.00
2022-09-14T04:35:40.417Z,2.00
2022-09-14T04:41:14.226Z,1.70
2022-09-14T04:46:47.275Z,1.85
2022-09-14T04:52:18.372Z,2.20
2022-09-14T04:57:49.716Z,2.15
2022-09-14T05:03:20.649Z,2.20
2022-09-14T05:08:52.516Z,2.20
2022-09-14T05:14:23.873Z,2.60
2022-09-14T05:19:54.989Z,2.33
2022-09-14T05:25:27.646Z,2.38
2022-09-14T05:30:58.932Z,2.13
2022-09-14T05:36:30.128Z,2.60
2022-09-14T05:42:01.373Z,2.63
2022-09-14T05:47:34.893Z,2.45
2022-09-14T05:53:10.190Z,2.40
2022-09-14T05:58:41.761Z,2.40
2022-09-14T06:04:13.284Z,2.70
2022-09-14T06:09:44.411Z,2.20
2022-09-14T06:15:15.602Z,2.60
2022-09-14T06:20:53.378Z,2.17
2022-09-14T06:26:26.020Z,2.20
2022-09-14T06:32:04.683Z,2.30
2022-09-14T06:37:35.593Z,2.22
2022-09-14T06:43:06.538Z,2.20
2022-09-14T06:48:44.388Z,2.15
2022-09-14T06:54:16.765Z,2.40
2022-09-14T06:59:47.887Z,2.17
2022-09-14T07:05:20.657Z,2.20
2022-09-14T07:10:59.058Z,2.40
2022-09-14T07:16:31.839Z,2.35
2022-09-14T07:22:03.203Z,2.58
2022-09-14T07:27:34.853Z,2.40
2022-09-14T07:33:06.245Z,2.30
2022-09-14T07:38:51.759Z,2.40
2022-09-14T07:44:23.599Z,2.10
2022-09-14T07:49:54.435Z,2.20
2022-09-14T07:55:25.638Z,3.35
2022-09-14T08:01:01.259Z,4.30
2022-09-14T08:06:32.691Z,3.47
2022-09-14T08:12:04.822Z,3.30
2022-09-14T08:17:35.951Z,6.97
2022-09-14T08:23:07.038Z,7.07
2022-09-14T08:28:39.196Z,3.65
2022-09-14T08:34:10.187Z,2.97
2022-09-14T08:39:41.355Z,5.72
2022-09-14T08:45:16.817Z,3.17
2022-09-14T08:50:47.611Z,4.20
2022-09-14T08:56:28.776Z,3.03
2022-09-14T09:02:33.668Z,2.70
2022-09-14T09:08:13.568Z,3.40
2022-09-14T09:13:46.288Z,2.47
2022-09-14T09:19:39.102Z,3.83
2022-09-14T09:25:23.403Z,3.33
2022-09-14T09:30:55.813Z,7.93
2022-09-14T09:36:41.240Z,3.58
2022-09-14T09:42:27.185Z,3.20
2022-09-14T09:47:58.178Z,3.08
2022-09-14T09:53:29.613Z,2.50
2022-09-14T09:59:00.771Z,2.53
2022-09-14T10:04:33.274Z,2.40
2022-09-14T10:10:13.983Z,2.50
2022-09-14T10:15:46.896Z,2.10
2022-09-14T10:21:23.032Z,2.50
2022-09-14T10:26:53.944Z,3.30
2022-09-14T10:32:27.235Z,3.13
2022-09-14T10:38:25.861Z,2.63
2022-09-14T10:44:19.671Z,2.22
2022-09-14T10:50:11.814Z,2.40
2022-09-14T10:56:02.002Z,2.20
2022-09-14T11:01:51.694Z,2.28
2022-09-14T11:07:23.032Z,2.58
2022-09-14T11:13:03.007Z,2.70
2022-09-14T11:18:40.037Z,2.30
2022-09-14T11:24:38.659Z,4.00
2022-09-14T11:30:19.700Z,2.40
2022-09-14T11:35:55.311Z,2.20
2022-09-14T11:41:39.826Z,2.60
2022-09-14T11:47:10.569Z,2.35
2022-09-14T11:52:41.544Z,2.78
2022-09-14T11:58:31.052Z,2.30
2022-09-14T12:04:12.379Z,1.98
2022-09-14T12:09:44.915Z,2.40
2022-09-14T12:15:36.621Z,2.40
2022-09-14T12:21:20.554Z,2.10
2022-09-14T12:26:52.571Z,2.92
2022-09-14T12:32:43.643Z,2.70
2022-09-14T12:38:30.382Z,2.33
2022-09-14T12:44:01.754Z,2.38
2022-09-14T12:49:35.643Z,2.22
2022-09-14T12:55:21.438Z,2.15
2022-09-14T13:01:11.140Z,1.90
2022-09-14T13:06:46.863Z,2.10
2022-09-14T13:12:41.332Z,2.25
2022-09-14T13:18:18.275Z,2.08
2022-09-14T13:23:52.218Z,1.80
2022-09-14T13:29:25.145Z,1.90
2022-09-14T13:40:29.939Z,1.80
2022-09-14T13:46:01.499Z,2.10
2022-09-14T13:51:34.075Z,2.10
2022-09-14T13:57:12.855Z,1.57
2022-09-14T14:02:49.259Z,1.90
2022-09-14T14:08:29.726Z,2.20
2022-09-14T14:14:16.034Z,1.70
2022-09-14T14:19:48.260Z,2.00
2022-09-14T14:25:24.996Z,1.90
2022-09-14T14:30:58.333Z,1.92
2022-09-14T14:36:29.383Z,1.90
2022-09-14T14:42:02.140Z,2.25
2022-09-14T14:47:33.783Z,2.00
2022-09-14T14:53:05.725Z,1.77
2022-09-14T14:58:46.642Z,2.25
2022-09-14T15:04:19.027Z,1.85
2022-09-14T15:09:50.382Z,1.97
2022-09-14T15:15:26.342Z,2.15
2022-09-14T15:20:57.355Z,1.77
2022-09-14T15:26:28.865Z,2.00
2022-09-14T15:32:00.531Z,2.00
2022-09-14T15:37:31.682Z,1.98
2022-09-14T15:43:04.406Z,1.85
2022-09-14T15:48:35.445Z,2.08
2022-09-14T15:54:06.730Z,2.00
2022-09-14T15:59:38.341Z,1.90
2022-09-14T16:05:09.364Z,2.28
2022-09-14T16:10:40.115Z,2.30
2022-09-14T16:16:13.402Z,1.80
2022-09-14T16:21:44.588Z,2.20
2022-09-14T16:27:16.447Z,2.00
2022-09-14T16:32:48.398Z,2.05
2022-09-14T16:38:19.343Z,1.83
2022-09-14T16:43:59.224Z,2.05
2022-09-14T16:49:30.315Z,2.28
2022-09-14T16:55:01.422Z,2.03
2022-09-14T17:00:35.629Z,2.10
2022-09-14T17:06:10.348Z,2.30
2022-09-14T17:11:42.786Z,2.40
2022-09-14T17:17:14.200Z,2.47
2022-09-14T17:22:45.415Z,1.90
2022-09-14T17:28:16.808Z,2.30
2022-09-14T17:33:48.009Z,2.22
2022-09-14T17:39:19.137Z,2.22
2022-09-14T17:44:50.237Z,2.40
2022-09-14T17:50:24.049Z,2.30
2022-09-14T17:56:02.792Z,2.67
2022-09-14T18:01:34.887Z,2.42
2022-09-14T18:07:06.047Z,2.30
2022-09-14T18:12:39.351Z,2.40
2022-09-14T18:18:10.324Z,2.65
2022-09-14T18:23:41.393Z,2.72
2022-09-14T18:29:15.052Z,2.70
2022-09-14T18:34:46.232Z,2.33
2022-09-14T18:40:20.301Z,2.85
2022-09-14T18:45:53.390Z,2.75
2022-09-14T18:51:25.689Z,2.33
2022-09-14T18:56:56.631Z,2.47
2022-09-14T19:02:27.925Z,2.45
2022-09-14T19:08:00.072Z,2.85
2022-09-14T19:13:30.952Z,2.90
2022-09-14T19:19:02.210Z,3.13
2022-09-14T19:24:33.616Z,2.50
2022-09-14T19:30:05.210Z,2.47
2022-09-14T19:35:37.305Z,3.25
2022-09-14T19:41:08.664Z,2.60
2022-09-14T19:46:40.645Z,2.58
2022-09-14T19:52:11.830Z,2.83
2022-09-14T19:57:42.957Z,3.08
2022-09-14T20:03:13.843Z,3.47
2022-09-14T20:08:46.867Z,3.40
2022-09-14T20:14:20.471Z,2.97
2022-09-14T20:19:51.303Z,3.05
2022-09-14T20:25:22.200Z,2.90
2022-09-14T20:30:59.246Z,2.60
2022-09-14T20:36:30.248Z,2.63
2022-09-14T20:42:01.608Z,2.80
2022-09-14T20:47:33.001Z,2.90
2022-09-14T20:53:04.346Z,2.88
2022-09-14T20:58:36.277Z,2.72
2022-09-14T21:04:09.931Z,2.70
2022-09-14T21:09:40.868Z,3.13
2022-09-14T21:15:12.058Z,2.47
2022-09-14T21:20:43.039Z,2.72
2022-09-14T21:26:14.240Z,2.50
2022-09-14T21:31:45.174Z,2.33
2022-09-14T21:37:16.659Z,2.28
2022-09-14T21:42:50.722Z,1.98
2022-09-14T21:48:21.911Z,2.00
2022-09-14T21:53:57.939Z,1.90
2022-09-14T21:59:29.315Z,1.80
2022-09-14T22:05:00.653Z,1.55
2022-09-14T22:10:34.724Z,1.60
2022-09-14T22:16:17.069Z,1.73
2022-09-14T22:21:48.881Z,1.30
2022-09-14T22:27:20.275Z,1.60
2022-09-14T22:32:51.484Z,1.85
2022-09-14T22:38:23.903Z,1.48
2022-09-14T22:43:55.670Z,1.40
2022-09-14T22:49:26.876Z,1.55
2022-09-14T22:54:57.854Z,1.40
2022-09-14T23:00:29.792Z,1.67
2022-09-14T23:06:00.703Z,1.50
2022-09-14T23:11:31.980Z,1.80
2022-09-14T23:17:03.370Z,1.60
2022-09-14T23:22:34.472Z,1.60
2022-09-14T23:28:06.747Z,1.58
2022-09-14T23:33:37.824Z,1.58
2022-09-14T23:39:08.705Z,1.40
2022-09-14T23:44:39.859Z,1.60
2022-09-14T23:50:11.147Z,1.60
2022-09-14T23:55:42.166Z,1.38
